createdAt,value
2022-10-04T00:01:09.677Z,10.19
2022-10-04T00:03:44.969Z,11.21
2022-10-04T00:06:19.636Z,10.80
2022-10-04T00:08:52.351Z,11.18
2022-10-04T00:11:26.635Z,10.92
2022-10-04T00:13:56.339Z,11.17
2022-10-04T00:16:29.688Z,11.20
2022-10-04T00:19:25.873Z,11.22
2022-10-04T00:22:17.484Z,11.26
2022-10-04T00:25:19.562Z,11.21
2022-10-04T00:28:18.130Z,11.26
2022-10-04T00:30:46.085Z,10.98
2022-10-04T00:33:37.536Z,11.24
2022-10-04T00:36:47.424Z,11.07
2022-10-04T00:39:40.610Z,11.16
2022-10-04T00:42:24.896Z,11.19
2022-10-04T00:44:57.920Z,11.14
2022-10-04T00:47:32.126Z,11.06
2022-10-04T00:50:09.636Z,11.05
2022-10-04T00:52:43.978Z,11.01
2022-10-04T00:55:26.159Z,11.01
2022-10-04T00:58:00.443Z,11.00
2022-10-04T01:00:33.648Z,10.83
2022-10-04T01:03:06.405Z,10.89
2022-10-04T01:05:37.631Z,10.87
2022-10-04T01:08:10.897Z,10.85
2022-10-04T01:10:44.648Z,10.86
2022-10-04T01:13:15.344Z,10.88
2022-10-04T01:15:50.610Z,10.88
2022-10-04T01:18:30.895Z,10.81
2022-10-04T01:21:03.986Z,10.92
2022-10-04T01:23:36.762Z,10.90
2022-10-04T01:26:05.999Z,10.82
2022-10-04T01:28:35.654Z,10.91
2022-10-04T01:31:03.905Z,10.90
2022-10-04T01:33:31.844Z,10.86
2022-10-04T01:35:59.815Z,10.83
2022-10-04T01:38:27.764Z,10.79
2022-10-04T01:41:01.117Z,10.72
2022-10-04T01:43:36.343Z,10.66
2022-10-04T01:46:09.749Z,10.64
2022-10-04T01:48:42.153Z,10.61
2022-10-04T01:51:15.289Z,10.28
2022-10-04T01:53:48.993Z,10.54
2022-10-04T01:56:22.589Z,10.43
2022-10-04T01:58:53.793Z,10.43
2022-10-04T02:01:26.729Z,10.46
2022-10-04T02:04:01.200Z,10.41
2022-10-04T02:06:31.054Z,10.33
2022-10-04T02:08:59.835Z,10.38
2022-10-04T02:11:31.264Z,10.22
2022-10-04T02:14:01.220Z,10.00
2022-10-04T02:16:29.565Z,10.36
2022-10-04T02:18:58.412Z,10.35
2022-10-04T02:21:26.604Z,10.31
2022-10-04T02:23:54.968Z,10.22
2022-10-04T02:26:23.074Z,10.21
2022-10-04T02:28:52.424Z,10.19
2022-10-04T02:31:40.851Z,10.20
2022-10-04T02:34:09.288Z,10.17
2022-10-04T02:36:38.786Z,10.17
2022-10-04T02:39:13.904Z,10.03
2022-10-04T02:41:47.567Z,10.03
2022-10-04T02:44:22.759Z,10.10
2022-10-04T02:46:55.061Z,10.11
2022-10-04T02:49:32.055Z,10.16
2022-10-04T02:52:04.972Z,10.16
2022-10-04T02:54:39.059Z,10.14
2022-10-04T02:57:12.175Z,10.10
2022-10-04T02:59:41.827Z,10.11
2022-10-04T03:02:29.408Z,10.03
2022-10-04T03:05:04.779Z,10.20
2022-10-04T03:07:33.944Z,10.19
2022-10-04T03:10:03.311Z,10.22
2022-10-04T03:12:31.792Z,10.14
2022-10-04T03:15:01.042Z,10.26
2022-10-04T03:17:30.139Z,10.22
2022-10-04T03:19:58.850Z,10.29
2022-10-04T03:22:26.723Z,10.31
2022-10-04T03:24:58.278Z,10.33
2022-10-04T03:27:29.788Z,10.36
2022-10-04T03:29:59.507Z,10.39
2022-10-04T03:32:30.727Z,10.37
2022-10-04T03:35:01.013Z,10.18
2022-10-04T03:37:32.520Z,10.29
2022-10-04T03:40:02.640Z,10.19
2022-10-04T03:42:34.280Z,10.28
2022-10-04T03:45:06.299Z,10.19
2022-10-04T03:47:38.964Z,10.17
2022-10-04T03:50:14.811Z,10.12
2022-10-04T03:52:48.417Z,10.15
2022-10-04T03:55:17.468Z,10.00
2022-10-04T03:57:45.716Z,10.07
2022-10-04T04:00:16.789Z,10.05
2022-10-04T04:02:51.248Z,10.01
2022-10-04T04:05:25.069Z,10.01
2022-10-04T04:08:02.240Z,9.98
2022-10-04T04:10:32.861Z,9.96
2022-10-04T04:13:06.673Z,9.88
2022-10-04T04:15:35.616Z,9.86
2022-10-04T04:18:06.989Z,9.89
2022-10-04T04:20:37.822Z,9.84
2022-10-04T04:23:19.948Z,9.84
2022-10-04T04:26:01.278Z,9.68
2022-10-04T04:28:34.153Z,9.81
2022-10-04T04:31:06.252Z,9.79
2022-10-04T04:33:43.556Z,9.80
2022-10-04T04:36:13.790Z,9.86
2022-10-04T04:39:01.609Z,9.92
2022-10-04T04:41:35.423Z,9.98
2022-10-04T04:44:03.473Z,9.97
2022-10-04T04:46:32.333Z,10.18
2022-10-04T04:49:05.436Z,9.56
2022-10-04T04:51:34.528Z,10.07
2022-10-04T04:54:05.594Z,9.78
2022-10-04T04:56:35.207Z,10.03
2022-10-04T04:59:07.417Z,9.98
2022-10-04T05:01:37.356Z,9.99
2022-10-04T05:04:17.664Z,9.95
2022-10-04T05:06:47.340Z,10.13
2022-10-04T05:09:24.665Z,10.13
2022-10-04T05:11:55.329Z,10.38
2022-10-04T05:14:23.263Z,11.25
2022-10-04T05:16:53.419Z,12.00
2022-10-04T05:19:27.928Z,12.66
2022-10-04T05:21:58.792Z,13.31
2022-10-04T05:24:30.114Z,13.28
2022-10-04T05:27:00.515Z,12.49
2022-10-04T05:29:32.396Z,12.04
2022-10-04T05:32:24.129Z,11.56
2022-10-04T05:34:54.583Z,11.42
2022-10-04T05:37:35.770Z,11.57
2022-10-04T05:40:19.524Z,12.79
2022-10-04T05:42:47.946Z,13.49
2022-10-04T05:45:19.656Z,13.78
2022-10-04T05:47:50.591Z,14.29
2022-10-04T05:50:24.083Z,14.35
2022-10-04T05:52:53.388Z,14.39
2022-10-04T05:55:29.641Z,13.81
2022-10-04T05:58:35.832Z,14.73
2022-10-04T06:01:24.828Z,14.56
2022-10-04T06:04:16.647Z,14.55
2022-10-04T06:06:52.351Z,14.86
2022-10-04T06:09:49.875Z,15.04
2022-10-04T06:12:31.758Z,14.84
2022-10-04T06:15:29.409Z,14.63
2022-10-04T06:18:10.164Z,14.46
2022-10-04T06:21:12.137Z,14.61
2022-10-04T06:23:49.360Z,14.55
2022-10-04T06:26:22.274Z,15.06
2022-10-04T06:28:54.136Z,14.98
2022-10-04T06:31:45.351Z,15.25
2022-10-04T06:34:48.224Z,15.48
2022-10-04T06:37:47.524Z,15.18
2022-10-04T06:40:48.376Z,15.45
2022-10-04T06:43:29.151Z,15.58
2022-10-04T06:46:09.837Z,15.75
2022-10-04T06:49:19.473Z,15.64
2022-10-04T06:52:21.438Z,15.72
2022-10-04T06:55:18.006Z,15.55
2022-10-04T06:58:17.054Z,15.13
2022-10-04T07:00:54.578Z,15.42
2022-10-04T07:03:27.784Z,15.34
2022-10-04T07:05:59.083Z,15.64
2022-10-04T07:08:35.526Z,15.73
2022-10-04T07:11:13.957Z,16.14
2022-10-04T07:13:50.092Z,14.69
2022-10-04T07:16:29.961Z,14.66
2022-10-04T07:19:08.354Z,14.26
2022-10-04T07:21:43.808Z,14.40
2022-10-04T07:24:20.580Z,14.50
2022-10-04T07:26:51.483Z,14.11
2022-10-04T07:29:24.835Z,13.56
2022-10-04T07:32:05.219Z,13.39
2022-10-04T07:34:36.169Z,13.23
2022-10-04T07:37:12.684Z,13.26
2022-10-04T07:39:48.012Z,13.29
2022-10-04T07:42:23.688Z,13.49
2022-10-04T07:45:04.891Z,13.57
2022-10-04T07:47:33.279Z,13.56
2022-10-04T07:50:01.205Z,13.59
2022-10-04T07:52:43.040Z,13.53
2022-10-04T07:55:22.848Z,13.50
2022-10-04T07:58:00.113Z,13.36
2022-10-04T08:00:37.706Z,13.05
2022-10-04T08:03:32.071Z,13.33
2022-10-04T08:06:12.093Z,13.36
2022-10-04T08:09:05.450Z,13.58
2022-10-04T08:11:44.684Z,13.67
2022-10-04T08:14:25.615Z,13.93
2022-10-04T08:17:13.076Z,13.91
2022-10-04T08:19:58.031Z,14.16
2022-10-04T08:22:44.303Z,14.29
2022-10-04T08:25:22.181Z,14.27
2022-10-04T08:28:24.070Z,14.19
2022-10-04T08:31:04.147Z,14.32
2022-10-04T08:33:53.888Z,14.47
2022-10-04T08:36:38.743Z,14.42
2022-10-04T08:39:19.124Z,14.36
2022-10-04T08:42:15.282Z,14.75
2022-10-04T08:45:21.097Z,15.50
2022-10-04T08:48:24.618Z,15.49
2022-10-04T08:51:42.860Z,15.68
2022-10-04T08:54:42.664Z,15.49
2022-10-04T08:57:45.493Z,15.57
2022-10-04T09:00:17.841Z,15.70
2022-10-04T09:03:28.369Z,15.50
2022-10-04T09:06:16.132Z,15.70
2022-10-04T09:09:21.927Z,15.93
2022-10-04T09:12:20.185Z,15.65
2022-10-04T09:15:07.873Z,15.55
2022-10-04T09:17:44.599Z,15.29
2022-10-04T09:20:39.881Z,15.50
2022-10-04T09:23:18.183Z,15.42
2022-10-04T09:25:56.664Z,16.22
2022-10-04T09:29:05.876Z,16.74
2022-10-04T09:32:15.036Z,17.90
2022-10-04T09:35:03.998Z,16.92
2022-10-04T09:37:45.568Z,16.72
2022-10-04T09:40:55.123Z,16.14
2022-10-04T09:43:56.296Z,16.53
2022-10-04T09:46:57.502Z,16.11
2022-10-04T09:49:47.860Z,17.01
2022-10-04T09:52:30.103Z,16.73
2022-10-04T09:55:23.263Z,17.25
2022-10-04T09:58:32.379Z,17.96
2022-10-04T10:01:08.983Z,18.66
2022-10-04T10:04:03.615Z,18.51
2022-10-04T10:06:49.949Z,18.30
2022-10-04T10:09:48.798Z,18.77
2022-10-04T10:13:07.039Z,19.20
2022-10-04T10:15:43.722Z,18.15
2022-10-04T10:18:22.683Z,18.02
2022-10-04T10:21:12.790Z,17.08
2022-10-04T10:23:58.540Z,17.04
2022-10-04T10:26:36.596Z,16.84
2022-10-04T10:29:23.801Z,17.28
2022-10-04T10:32:05.720Z,17.15
2022-10-04T10:34:58.062Z,16.87
2022-10-04T10:37:42.350Z,17.36
2022-10-04T10:40:43.620Z,17.35
2022-10-04T10:43:46.623Z,17.38
2022-10-04T10:46:28.501Z,17.01
2022-10-04T10:49:26.984Z,17.63
2022-10-04T10:52:15.369Z,17.88
2022-10-04T10:55:33.585Z,18.10
2022-10-04T10:58:46.550Z,17.41
2022-10-04T11:01:37.463Z,16.98
2022-10-04T11:04:35.956Z,16.79
2022-10-04T11:07:37.384Z,16.56
2022-10-04T11:10:37.959Z,17.05
2022-10-04T11:13:26.532Z,17.26
2022-10-04T11:16:19.631Z,17.96
2022-10-04T11:19:36.961Z,18.37
2022-10-04T11:22:45.393Z,19.13
2022-10-04T11:25:44.522Z,19.57
2022-10-04T11:28:19.051Z,18.97
2022-10-04T11:31:14.522Z,18.04
2022-10-04T11:34:02.982Z,17.80
2022-10-04T11:36:57.059Z,17.44
2022-10-04T11:39:47.926Z,17.19
2022-10-04T11:42:26.396Z,16.65
2022-10-04T11:45:33.490Z,16.82
2022-10-04T11:48:17.633Z,16.84
2022-10-04T11:51:03.142Z,16.81
2022-10-04T11:54:10.525Z,16.88
2022-10-04T11:57:05.709Z,17.23
2022-10-04T11:59:47.647Z,17.23
2022-10-04T12:02:43.088Z,16.90
2022-10-04T12:05:38.831Z,16.85
2022-10-04T12:08:24.277Z,16.89
2022-10-04T12:19:20.954Z,18.10
2022-10-04T12:21:59.172Z,17.67
2022-10-04T12:24:59.529Z,17.44
2022-10-04T12:27:59.591Z,17.63
2022-10-04T12:30:42.055Z,17.46
2022-10-04T12:33:20.176Z,17.22
2022-10-04T12:35:58.682Z,18.02
2022-10-04T12:38:55.806Z,18.61
2022-10-04T12:41:33.185Z,18.06
2022-10-04T12:44:16.620Z,18.19
2022-10-04T12:46:56.108Z,17.99
2022-10-04T12:49:38.129Z,17.74
2022-10-04T12:52:12.715Z,17.09
2022-10-04T12:54:44.881Z,17.00
2022-10-04T12:57:42.577Z,16.70
2022-10-04T13:00:20.562Z,16.33
2022-10-04T13:03:21.953Z,16.53
2022-10-04T13:06:03.018Z,16.36
2022-10-04T13:08:56.456Z,16.27
2022-10-04T13:11:53.292Z,16.30
2022-10-04T13:15:00.793Z,16.58
2022-10-04T13:17:40.925Z,16.74
2022-10-04T13:20:48.697Z,16.92
2022-10-04T13:23:32.883Z,16.85
2022-10-04T13:26:28.969Z,16.68
2022-10-04T13:29:04.972Z,16.58
2022-10-04T13:31:40.062Z,16.44
2022-10-04T13:34:26.839Z,16.31
2022-10-04T13:37:11.151Z,16.08
2022-10-04T13:40:15.852Z,16.07
2022-10-04T13:43:06.859Z,16.04
2022-10-04T13:45:45.308Z,15.03
2022-10-04T13:48:27.416Z,15.93
2022-10-04T13:51:20.407Z,16.07
2022-10-04T13:54:17.145Z,16.19
2022-10-04T13:57:13.323Z,16.49
2022-10-04T13:59:45.809Z,16.46
2022-10-04T14:02:49.133Z,16.24
2022-10-04T14:05:42.154Z,15.63
2022-10-04T14:08:48.385Z,15.91
2022-10-04T14:12:03.301Z,15.70
2022-10-04T14:15:17.282Z,15.68
2022-10-04T14:18:13.159Z,15.45
2022-10-04T14:21:19.427Z,15.51
2022-10-04T14:24:15.193Z,15.33
2022-10-04T14:27:17.772Z,15.36
2022-10-04T14:30:03.227Z,15.32
2022-10-04T14:33:07.189Z,15.20
2022-10-04T14:35:45.422Z,15.11
2022-10-04T14:38:48.586Z,15.18
2022-10-04T14:41:50.328Z,15.33
2022-10-04T14:44:45.673Z,15.32
2022-10-04T14:48:01.967Z,15.33
2022-10-04T14:50:34.314Z,15.21
2022-10-04T14:53:16.629Z,15.11
2022-10-04T14:56:20.883Z,14.74
2022-10-04T14:59:01.073Z,13.74
2022-10-04T15:01:30.174Z,14.62
2022-10-04T15:04:19.834Z,14.48
2022-10-04T15:06:51.404Z,14.43
2022-10-04T15:09:53.766Z,14.54
2022-10-04T15:13:10.069Z,14.50
2022-10-04T15:15:41.757Z,14.44
2022-10-04T15:18:28.134Z,14.18
2022-10-04T15:21:01.528Z,13.31
2022-10-04T15:23:37.909Z,14.31
2022-10-04T15:26:41.782Z,14.20
2022-10-04T15:29:23.744Z,14.22
2022-10-04T15:32:04.218Z,14.22
2022-10-04T15:34:39.603Z,14.15
2022-10-04T15:37:25.371Z,13.75
2022-10-04T15:40:25.736Z,14.12
2022-10-04T15:43:07.445Z,14.08
2022-10-04T15:46:07.038Z,13.62
2022-10-04T15:48:52.381Z,13.81
2022-10-04T15:51:42.417Z,13.78
2022-10-04T15:54:34.162Z,13.72
2022-10-04T15:57:05.247Z,13.75
2022-10-04T15:59:52.076Z,13.68
2022-10-04T16:02:44.387Z,13.60
2022-10-04T16:05:22.010Z,13.59
2022-10-04T16:08:07.065Z,13.52
2022-10-04T16:11:08.172Z,13.45
2022-10-04T16:14:03.871Z,13.30
2022-10-04T16:17:15.152Z,13.42
2022-10-04T16:20:14.853Z,12.35
2022-10-04T16:23:21.872Z,13.25
2022-10-04T16:25:49.787Z,13.26
2022-10-04T16:28:38.239Z,13.25
2022-10-04T16:31:24.759Z,13.18
2022-10-04T16:34:03.951Z,13.24
2022-10-04T16:36:47.764Z,13.24
2022-10-04T16:39:51.893Z,13.17
2022-10-04T16:42:24.304Z,13.25
2022-10-04T16:44:57.077Z,12.87
2022-10-04T16:47:29.929Z,13.17
2022-10-04T16:50:01.804Z,13.20
2022-10-04T16:52:46.085Z,13.24
2022-10-04T16:55:37.899Z,13.16
2022-10-04T16:58:52.525Z,13.25
2022-10-04T17:01:50.676Z,13.19
2022-10-04T17:04:40.771Z,13.25
2022-10-04T17:07:21.276Z,13.22
2022-10-04T17:09:50.766Z,12.36
2022-10-04T17:12:21.001Z,13.17
2022-10-04T17:14:57.924Z,13.14
2022-10-04T17:17:40.299Z,12.88
2022-10-04T17:20:18.490Z,12.85
2022-10-04T17:22:58.356Z,12.98
2022-10-04T17:25:34.265Z,12.96
2022-10-04T17:28:18.430Z,12.97
2022-10-04T17:30:54.407Z,12.94
2022-10-04T17:33:39.189Z,12.88
2022-10-04T17:36:25.988Z,12.82
2022-10-04T17:39:05.646Z,11.99
2022-10-04T17:41:49.259Z,12.75
2022-10-04T17:44:50.222Z,12.84
2022-10-04T17:47:24.144Z,12.80
2022-10-04T17:50:21.625Z,12.84
2022-10-04T17:53:12.568Z,11.82
2022-10-04T17:55:50.555Z,12.81
2022-10-04T17:58:23.250Z,12.80
2022-10-04T18:00:59.763Z,12.75
2022-10-04T18:03:37.246Z,12.81
2022-10-04T18:06:16.746Z,12.68
2022-10-04T18:08:52.379Z,12.87
2022-10-04T18:11:29.635Z,12.85
2022-10-04T18:14:03.639Z,12.78
2022-10-04T18:16:33.786Z,12.78
2022-10-04T18:19:37.178Z,12.49
2022-10-04T18:22:15.034Z,12.80
2022-10-04T18:24:44.878Z,12.80
2022-10-04T18:27:19.618Z,11.87
2022-10-04T18:30:00.478Z,12.63
2022-10-04T18:32:34.437Z,12.68
2022-10-04T18:35:04.239Z,12.67
2022-10-04T18:37:37.244Z,12.64
2022-10-04T18:40:16.896Z,12.57
2022-10-04T18:42:52.197Z,12.58
2022-10-04T18:45:23.646Z,12.50
2022-10-04T18:47:52.347Z,12.46
2022-10-04T18:50:33.884Z,12.21
2022-10-04T18:53:24.704Z,12.35
2022-10-04T18:56:01.380Z,12.37
2022-10-04T18:59:04.494Z,12.31
2022-10-04T19:02:03.502Z,12.30
2022-10-04T19:04:48.688Z,12.22
2022-10-04T19:07:19.463Z,12.19
2022-10-04T19:10:07.986Z,12.13
2022-10-04T19:12:45.682Z,12.08
2022-10-04T19:15:27.540Z,12.09
2022-10-04T19:18:05.912Z,11.98
2022-10-04T19:20:41.356Z,12.00
2022-10-04T19:23:25.099Z,12.00
2022-10-04T19:26:29.982Z,12.03
2022-10-04T19:28:46.680Z,12.00
2022-10-04T19:31:22.186Z,11.85
2022-10-04T19:33:57.102Z,11.77
2022-10-04T19:36:36.572Z,11.47
2022-10-04T19:39:18.085Z,11.71
2022-10-04T19:41:55.555Z,11.73
2022-10-04T19:44:36.080Z,11.70
2022-10-04T19:47:17.568Z,11.60
2022-10-04T19:49:52.141Z,11.52
2022-10-04T19:52:24.816Z,11.50
2022-10-04T19:54:59.060Z,11.47
2022-10-04T19:57:39.301Z,11.45
2022-10-04T20:00:12.785Z,11.50
2022-10-04T20:02:48.452Z,11.44
2022-10-04T20:05:24.871Z,11.36
2022-10-04T20:07:57.449Z,11.38
2022-10-04T20:10:36.389Z,11.28
2022-10-04T20:13:25.962Z,11.28
2022-10-04T20:15:56.449Z,11.34
2022-10-04T20:18:59.594Z,11.33
2022-10-04T20:21:32.102Z,11.26
2022-10-04T20:24:01.575Z,11.06
2022-10-04T20:27:01.420Z,11.30
2022-10-04T20:29:59.035Z,11.30
2022-10-04T20:32:54.652Z,11.26
2022-10-04T20:36:09.007Z,11.27
2022-10-04T20:39:02.616Z,11.14
2022-10-04T20:42:22.504Z,11.16
2022-10-04T20:44:56.773Z,11.11
2022-10-04T20:47:34.208Z,11.06
2022-10-04T20:50:03.743Z,11.09
2022-10-04T20:52:33.950Z,10.87
2022-10-04T20:55:08.769Z,10.95
2022-10-04T20:57:40.711Z,10.89
2022-10-04T21:00:22.090Z,10.88
2022-10-04T21:02:50.350Z,10.84
2022-10-04T21:05:25.384Z,10.83
2022-10-04T21:08:22.642Z,10.76
2022-10-04T21:11:05.456Z,10.63
2022-10-04T21:13:44.055Z,10.19
2022-10-04T21:16:11.985Z,10.57
2022-10-04T21:18:39.883Z,10.55
2022-10-04T21:21:10.697Z,10.51
2022-10-04T21:23:38.557Z,10.49
2022-10-04T21:26:24.987Z,10.51
2022-10-04T21:28:54.691Z,10.51
2022-10-04T21:31:22.640Z,10.47
2022-10-04T21:33:50.463Z,10.45
2022-10-04T21:36:18.272Z,10.35
2022-10-04T21:38:46.068Z,10.35
2022-10-04T21:41:13.912Z,10.31
2022-10-04T21:43:43.089Z,10.33
2022-10-04T21:46:10.943Z,10.29
2022-10-04T21:48:38.787Z,10.34
2022-10-04T21:51:06.628Z,10.38
2022-10-04T21:53:34.427Z,10.38
2022-10-04T21:56:03.392Z,10.37
2022-10-04T21:58:31.208Z,10.36
2022-10-04T22:01:00.576Z,10.37
2022-10-04T22:03:28.447Z,10.37
2022-10-04T22:05:56.276Z,10.25
2022-10-04T22:08:24.139Z,10.11
2022-10-04T22:10:55.482Z,9.94
2022-10-04T22:13:26.785Z,9.86
2022-10-04T22:15:55.224Z,9.74
2022-10-04T22:18:24.449Z,9.61
2022-10-04T22:20:52.249Z,9.49
2022-10-04T22:23:21.759Z,9.41
2022-10-04T22:25:50.168Z,9.33
2022-10-04T22:28:22.140Z,9.34
2022-10-04T22:30:50.572Z,9.30
2022-10-04T22:33:32.242Z,9.16
2022-10-04T22:36:06.599Z,9.21
2022-10-04T22:38:34.436Z,9.14
2022-10-04T22:41:02.321Z,8.96
2022-10-04T22:43:30.149Z,8.92
2022-10-04T22:45:58.306Z,8.83
2022-10-04T22:48:29.006Z,8.78
2022-10-04T22:50:56.961Z,8.74
2022-10-04T22:53:25.057Z,8.73
2022-10-04T22:55:55.913Z,8.69
2022-10-04T22:58:24.163Z,8.71
2022-10-04T23:00:52.060Z,8.81
2022-10-04T23:03:28.945Z,8.79
2022-10-04T23:05:56.769Z,8.78
2022-10-04T23:08:24.621Z,8.74
2022-10-04T23:10:54.783Z,8.69
2022-10-04T23:13:24.858Z,8.76
2022-10-04T23:15:53.413Z,8.67
2022-10-04T23:18:21.311Z,8.63
2022-10-04T23:20:57.956Z,8.59
2022-10-04T23:23:28.476Z,8.45
2022-10-04T23:25:56.325Z,8.34
2022-10-04T23:28:25.485Z,8.29
2022-10-04T23:31:03.348Z,8.25
2022-10-04T23:33:31.424Z,8.19
2022-10-04T23:36:00.682Z,8.01
2022-10-04T23:38:30.413Z,7.91
2022-10-04T23:40:58.329Z,7.87
2022-10-04T23:43:26.894Z,7.89
2022-10-04T23:45:57.034Z,7.88
2022-10-04T23:48:27.447Z,7.96
2022-10-04T23:50:57.325Z,8.06
2022-10-04T23:53:29.240Z,8.20
2022-10-04T23:55:58.767Z,8.31
2022-10-04T23:58:35.049Z,7.85
